createdAt,value
2023-07-22T00:01:27.562Z,22.76
2023-07-22T00:03:54.092Z,22.85
2023-07-22T00:06:20.468Z,22.98
2023-07-22T00:08:46.971Z,22.69
2023-07-22T00:11:13.449Z,22.89
2023-07-22T00:13:39.774Z,22.66
2023-07-22T00:16:06.181Z,22.64
2023-07-22T00:18:32.461Z,22.67
2023-07-22T00:20:58.831Z,22.90
2023-07-22T00:23:25.136Z,22.71
2023-07-22T00:25:51.528Z,22.69
2023-07-22T00:28:17.992Z,22.71
2023-07-22T00:30:44.541Z,22.49
2023-07-22T00:33:10.842Z,22.58
2023-07-22T00:35:37.180Z,22.53
2023-07-22T00:38:03.469Z,22.66
2023-07-22T00:40:29.786Z,22.59
2023-07-22T00:42:56.087Z,22.69
2023-07-22T00:45:22.410Z,22.60
2023-07-22T00:47:48.927Z,22.62
2023-07-22T00:50:15.542Z,22.61
2023-07-22T00:52:41.889Z,22.58
2023-07-22T00:55:08.330Z,22.52
2023-07-22T00:57:37.047Z,22.61
2023-07-22T01:00:03.544Z,22.53
2023-07-22T01:02:29.856Z,22.53
2023-07-22T01:04:56.460Z,22.55
2023-07-22T01:07:22.758Z,22.53
2023-07-22T01:09:52.061Z,22.45
2023-07-22T01:12:18.392Z,22.53
2023-07-22T01:14:44.705Z,22.46
2023-07-22T01:17:11.035Z,22.48
2023-07-22T01:19:37.328Z,22.35
2023-07-22T01:22:03.665Z,22.40
2023-07-22T01:24:30.040Z,22.19
2023-07-22T01:27:03.989Z,22.31
2023-07-22T01:29:30.265Z,22.38
2023-07-22T01:31:56.746Z,22.41
2023-07-22T01:34:25.348Z,22.29
2023-07-22T01:36:51.861Z,22.36
2023-07-22T01:39:21.181Z,22.47
2023-07-22T01:41:47.716Z,22.46
2023-07-22T01:44:14.234Z,22.35
2023-07-22T01:46:40.619Z,22.25
2023-07-22T01:49:07.072Z,22.29
2023-07-22T01:51:33.480Z,22.33
2023-07-22T01:53:59.756Z,22.24
2023-07-22T01:56:26.461Z,22.16
2023-07-22T01:58:53.052Z,22.14
2023-07-22T02:01:21.437Z,22.19
2023-07-22T02:03:48.036Z,22.25
2023-07-22T02:06:14.459Z,22.34
2023-07-22T02:08:40.743Z,22.23
2023-07-22T02:11:07.107Z,22.34
2023-07-22T02:13:33.517Z,22.13
2023-07-22T02:15:59.839Z,22.24
2023-07-22T02:18:26.395Z,22.08
2023-07-22T02:20:52.685Z,22.30
2023-07-22T02:23:19.054Z,22.14
2023-07-22T02:25:45.570Z,22.02
2023-07-22T02:28:20.748Z,22.06
2023-07-22T02:30:47.350Z,22.03
2023-07-22T02:33:13.726Z,22.09
2023-07-22T02:35:40.150Z,22.25
2023-07-22T02:38:06.461Z,22.17
2023-07-22T02:40:32.741Z,22.04
2023-07-22T02:42:59.192Z,22.06
2023-07-22T02:45:25.625Z,21.93
2023-07-22T02:47:52.193Z,21.98
2023-07-22T02:50:18.535Z,22.03
2023-07-22T02:52:45.104Z,22.02
2023-07-22T02:55:11.619Z,22.09
2023-07-22T02:57:37.898Z,21.95
2023-07-22T03:00:04.228Z,21.91
2023-07-22T03:02:33.227Z,21.92
2023-07-22T03:04:59.685Z,21.92
2023-07-22T03:07:26.235Z,21.94
2023-07-22T03:09:52.572Z,21.98
2023-07-22T03:12:19.109Z,21.86
2023-07-22T03:14:45.561Z,21.84
2023-07-22T03:17:11.880Z,21.94
2023-07-22T03:19:38.182Z,21.87
2023-07-22T03:22:04.753Z,21.81
2023-07-22T03:24:31.065Z,21.81
2023-07-22T03:26:57.440Z,21.77
2023-07-22T03:29:23.743Z,21.74
2023-07-22T03:31:52.316Z,21.80
2023-07-22T03:34:18.844Z,21.74
2023-07-22T03:36:45.323Z,21.76
2023-07-22T03:39:13.766Z,21.68
2023-07-22T03:41:40.075Z,21.80
2023-07-22T03:44:06.449Z,21.77
2023-07-22T03:46:32.953Z,21.73
2023-07-22T03:48:59.282Z,21.76
2023-07-22T03:51:25.601Z,21.69
2023-07-22T03:53:51.890Z,21.69
2023-07-22T03:56:18.310Z,21.81
2023-07-22T03:58:44.766Z,21.94
2023-07-22T04:01:11.091Z,21.67
2023-07-22T04:03:37.544Z,21.70
2023-07-22T04:06:03.943Z,21.84
2023-07-22T04:08:30.261Z,21.89
2023-07-22T04:10:56.660Z,21.82
2023-07-22T04:13:23.170Z,21.66
2023-07-22T04:15:49.591Z,21.62
2023-07-22T04:18:16.116Z,21.75
2023-07-22T04:20:42.613Z,21.40
2023-07-22T04:23:09.037Z,21.75
2023-07-22T04:25:35.577Z,21.63
2023-07-22T04:28:01.996Z,21.63
2023-07-22T04:30:28.483Z,21.67
2023-07-22T04:32:54.840Z,21.66
2023-07-22T04:35:21.132Z,21.65
2023-07-22T04:37:47.499Z,21.66
2023-07-22T04:40:13.908Z,21.55
2023-07-22T04:42:40.218Z,21.60
2023-07-22T04:45:06.625Z,21.60
2023-07-22T04:47:33.098Z,21.61
2023-07-22T04:49:59.503Z,21.50
2023-07-22T04:52:25.821Z,21.46
2023-07-22T04:54:52.157Z,21.46
2023-07-22T04:57:18.676Z,21.48
2023-07-22T04:59:45.202Z,21.68
2023-07-22T05:02:19.121Z,21.52
2023-07-22T05:04:45.545Z,21.40
2023-07-22T05:07:11.899Z,21.47
2023-07-22T05:09:38.467Z,21.52
2023-07-22T05:12:05.146Z,21.47
2023-07-22T05:14:31.449Z,21.47
2023-07-22T05:16:57.824Z,21.53
2023-07-22T05:19:26.399Z,21.54
2023-07-22T05:21:52.783Z,21.64
2023-07-22T05:24:19.083Z,21.60
2023-07-22T05:26:58.829Z,21.59
2023-07-22T05:29:31.722Z,21.68
2023-07-22T05:32:16.860Z,21.59
2023-07-22T05:34:53.592Z,21.50
2023-07-22T05:37:20.067Z,21.60
2023-07-22T05:39:46.385Z,21.51
2023-07-22T05:42:12.724Z,21.47
2023-07-22T05:44:39.011Z,21.66
2023-07-22T05:47:05.317Z,21.52
2023-07-22T05:49:31.607Z,21.64
2023-07-22T05:51:58.150Z,21.58
2023-07-22T05:54:24.467Z,21.65
2023-07-22T05:56:50.779Z,21.67
2023-07-22T05:59:21.890Z,21.61
2023-07-22T06:01:48.937Z,21.68
2023-07-22T06:04:15.411Z,21.67
2023-07-22T06:06:41.951Z,21.70
2023-07-22T06:09:08.255Z,21.72
2023-07-22T06:11:34.636Z,21.73
2023-07-22T06:14:00.927Z,21.79
2023-07-22T06:16:27.685Z,21.89
2023-07-22T06:18:54.174Z,21.75
2023-07-22T06:21:20.482Z,21.81
2023-07-22T06:23:46.787Z,21.86
2023-07-22T06:26:13.199Z,21.85
2023-07-22T06:28:39.473Z,21.86
2023-07-22T06:31:08.965Z,21.98
2023-07-22T06:33:35.276Z,22.00
2023-07-22T06:36:01.551Z,21.99
2023-07-22T06:38:28.044Z,22.01
2023-07-22T06:40:54.341Z,22.14
2023-07-22T06:43:20.694Z,22.11
2023-07-22T06:45:47.300Z,22.15
2023-07-22T06:48:13.675Z,22.20
2023-07-22T06:50:39.941Z,22.20
2023-07-22T06:53:06.377Z,22.17
2023-07-22T06:55:32.706Z,22.22
2023-07-22T06:57:59.082Z,22.18
2023-07-22T07:00:25.355Z,22.24
2023-07-22T07:02:51.703Z,22.35
2023-07-22T07:05:18.257Z,22.37
2023-07-22T07:07:44.792Z,22.46
2023-07-22T07:10:13.705Z,22.30
2023-07-22T07:12:40.034Z,22.27
2023-07-22T07:15:06.433Z,22.22
2023-07-22T07:17:32.911Z,22.31
2023-07-22T07:19:59.205Z,22.42
2023-07-22T07:22:25.491Z,22.39
2023-07-22T07:24:54.217Z,22.39
2023-07-22T07:27:20.475Z,22.45
2023-07-22T07:29:54.128Z,22.57
2023-07-22T07:32:21.264Z,22.53
2023-07-22T07:34:48.800Z,22.52
2023-07-22T07:37:15.277Z,22.56
2023-07-22T07:39:41.652Z,22.49
2023-07-22T07:42:08.060Z,22.54
2023-07-22T07:44:34.401Z,22.53
2023-07-22T07:47:00.867Z,22.53
2023-07-22T07:49:27.210Z,22.61
2023-07-22T07:51:53.595Z,22.64
2023-07-22T07:54:20.078Z,22.54
2023-07-22T07:56:46.561Z,22.56
2023-07-22T07:59:12.848Z,22.51
2023-07-22T08:01:39.269Z,22.52
2023-07-22T08:04:05.761Z,22.45
2023-07-22T08:06:32.125Z,22.67
2023-07-22T08:08:58.629Z,22.60
2023-07-22T08:11:24.960Z,22.63
2023-07-22T08:13:51.241Z,22.65
2023-07-22T08:16:17.601Z,22.64
2023-07-22T08:18:44.060Z,22.69
2023-07-22T08:21:10.419Z,22.68
2023-07-22T08:23:36.740Z,22.70
2023-07-22T08:26:03.008Z,22.73
2023-07-22T08:28:29.494Z,22.85
2023-07-22T08:30:55.890Z,22.87
2023-07-22T08:33:31.336Z,22.90
2023-07-22T08:36:01.736Z,23.01
2023-07-22T08:38:28.128Z,23.06
2023-07-22T08:40:54.608Z,23.11
2023-07-22T08:43:20.887Z,23.15
2023-07-22T08:45:47.312Z,23.14
2023-07-22T08:48:13.667Z,23.21
2023-07-22T08:50:40.188Z,23.25
2023-07-22T08:53:06.763Z,23.30
2023-07-22T08:55:33.175Z,23.35
2023-07-22T08:57:59.770Z,23.37
2023-07-22T09:00:26.038Z,23.40
2023-07-22T09:02:52.306Z,23.44
2023-07-22T09:05:18.861Z,23.46
2023-07-22T09:07:45.388Z,23.47
2023-07-22T09:10:11.738Z,23.51
2023-07-22T09:12:38.277Z,23.55
2023-07-22T09:15:07.716Z,23.57
2023-07-22T09:17:34.245Z,23.58
2023-07-22T09:20:00.645Z,23.62
2023-07-22T09:22:28.978Z,23.61
2023-07-22T09:24:56.778Z,23.64
2023-07-22T09:27:23.076Z,23.68
2023-07-22T09:29:49.413Z,23.70
2023-07-22T09:32:15.740Z,23.73
2023-07-22T09:34:42.039Z,23.76
2023-07-22T09:37:08.437Z,23.77
2023-07-22T09:39:34.932Z,23.79
2023-07-22T09:42:01.419Z,23.81
2023-07-22T09:44:27.746Z,23.86
2023-07-22T09:46:54.177Z,23.89
2023-07-22T09:49:20.549Z,23.89
2023-07-22T09:52:02.196Z,23.93
2023-07-22T09:54:29.760Z,23.92
2023-07-22T09:56:56.030Z,24.05
2023-07-22T09:59:22.295Z,24.07
2023-07-22T10:01:48.735Z,24.11
2023-07-22T10:04:15.040Z,24.15
2023-07-22T10:06:41.308Z,24.13
2023-07-22T10:09:07.631Z,24.21
2023-07-22T10:11:34.055Z,24.25
2023-07-22T10:14:00.544Z,24.30
2023-07-22T10:16:27.052Z,24.39
2023-07-22T10:18:53.528Z,24.45
2023-07-22T10:21:20.012Z,24.54
2023-07-22T10:23:46.391Z,24.60
2023-07-22T10:26:12.662Z,24.67
2023-07-22T10:28:39.123Z,24.70
2023-07-22T10:31:05.648Z,24.78
2023-07-22T10:33:31.925Z,24.83
2023-07-22T10:35:58.354Z,24.88
2023-07-22T10:38:24.780Z,24.88
2023-07-22T10:40:54.222Z,24.87
2023-07-22T10:43:20.536Z,24.89
2023-07-22T10:45:46.866Z,24.95
2023-07-22T10:48:13.202Z,25.02
2023-07-22T10:50:41.024Z,25.05
2023-07-22T10:53:09.194Z,25.18
2023-07-22T10:55:35.501Z,25.26
2023-07-22T10:58:01.802Z,25.30
2023-07-22T11:00:28.150Z,25.40
2023-07-22T11:02:54.450Z,25.45
2023-07-22T11:05:20.843Z,25.47
2023-07-22T11:07:47.139Z,25.56
2023-07-22T11:10:13.422Z,25.65
2023-07-22T11:12:39.857Z,25.73
2023-07-22T11:15:06.174Z,25.88
2023-07-22T11:17:32.626Z,25.98
2023-07-22T11:19:59.306Z,26.08
2023-07-22T11:22:25.784Z,26.18
2023-07-22T11:24:52.086Z,26.20
2023-07-22T11:27:18.444Z,26.30
2023-07-22T11:29:44.929Z,26.38
2023-07-22T11:32:11.197Z,26.41
2023-07-22T11:34:37.668Z,26.55
2023-07-22T11:37:06.115Z,26.66
2023-07-22T11:39:33.521Z,26.70
2023-07-22T11:41:59.825Z,26.85
2023-07-22T11:44:26.283Z,26.95
2023-07-22T11:46:52.557Z,27.01
2023-07-22T11:49:18.975Z,27.11
2023-07-22T11:51:45.442Z,27.20
2023-07-22T11:54:11.781Z,27.23
2023-07-22T11:56:38.152Z,27.21
2023-07-22T11:59:04.628Z,27.26
2023-07-22T12:01:31.096Z,27.31
2023-07-22T12:03:57.452Z,27.39
2023-07-22T12:06:23.748Z,27.46
2023-07-22T12:08:50.267Z,27.50
2023-07-22T12:11:16.733Z,27.53
2023-07-22T12:13:45.080Z,27.61
2023-07-22T12:16:14.217Z,27.66
2023-07-22T12:18:40.565Z,27.71
2023-07-22T12:21:07.072Z,27.73
2023-07-22T12:23:33.360Z,27.81
2023-07-22T12:25:59.759Z,27.82
2023-07-22T12:28:26.288Z,27.85
2023-07-22T12:30:52.595Z,27.93
2023-07-22T12:33:18.904Z,28.02
2023-07-22T12:35:45.415Z,28.14
2023-07-22T12:38:11.728Z,28.15
2023-07-22T12:40:38.076Z,28.22
2023-07-22T12:43:04.383Z,28.31
2023-07-22T12:45:30.798Z,28.30
2023-07-22T12:47:57.138Z,28.31
2023-07-22T12:50:23.440Z,28.38
2023-07-22T12:52:50.008Z,28.42
2023-07-22T12:55:16.290Z,28.52
2023-07-22T12:57:42.547Z,28.64
2023-07-22T13:00:08.956Z,28.68
2023-07-22T13:02:35.262Z,28.67
2023-07-22T13:05:01.627Z,28.65
2023-07-22T13:07:27.941Z,28.67
2023-07-22T13:09:54.252Z,28.72
2023-07-22T13:12:20.780Z,28.76
2023-07-22T13:14:47.147Z,28.83
2023-07-22T13:17:13.503Z,28.93
2023-07-22T13:19:39.982Z,28.99
2023-07-22T13:22:09.273Z,29.10
2023-07-22T13:24:35.750Z,29.21
2023-07-22T13:27:02.367Z,29.27
2023-07-22T13:29:28.806Z,29.32
2023-07-22T13:31:55.118Z,29.28
2023-07-22T13:34:21.467Z,29.26
2023-07-22T13:36:47.986Z,29.25
2023-07-22T13:39:14.291Z,29.25
2023-07-22T13:41:40.724Z,29.23
2023-07-22T13:44:07.152Z,29.24
2023-07-22T13:46:33.652Z,29.26
2023-07-22T13:49:00.132Z,29.28
2023-07-22T13:51:26.572Z,29.28
2023-07-22T13:53:53.136Z,29.31
2023-07-22T13:56:19.556Z,29.35
2023-07-22T13:58:45.843Z,29.38
2023-07-22T14:01:19.501Z,29.41
2023-07-22T14:03:45.826Z,29.43
2023-07-22T14:06:12.132Z,29.43
2023-07-22T14:08:38.572Z,29.43
2023-07-22T14:11:04.874Z,29.41
2023-07-22T14:13:31.232Z,29.42
2023-07-22T14:16:05.557Z,29.48
2023-07-22T14:18:35.356Z,29.49
2023-07-22T14:21:01.760Z,29.54
2023-07-22T14:23:28.028Z,29.56
2023-07-22T14:25:54.318Z,29.57
2023-07-22T14:28:20.690Z,29.59
2023-07-22T14:30:47.202Z,29.64
2023-07-22T14:33:13.605Z,29.71
2023-07-22T14:35:40.083Z,29.76
2023-07-22T14:38:06.357Z,29.77
2023-07-22T14:40:32.817Z,29.78
2023-07-22T14:42:59.128Z,29.75
2023-07-22T14:45:25.462Z,29.74
2023-07-22T14:47:51.988Z,29.73
2023-07-22T14:50:18.461Z,29.71
2023-07-22T14:52:44.900Z,29.70
2023-07-22T14:55:11.285Z,29.65
2023-07-22T14:57:37.588Z,29.61
2023-07-22T15:00:04.096Z,29.60
2023-07-22T15:02:30.571Z,29.63
2023-07-22T15:04:56.910Z,29.66
2023-07-22T15:07:23.185Z,29.69
2023-07-22T15:09:49.464Z,29.72
2023-07-22T15:12:17.224Z,29.71
2023-07-22T15:14:44.456Z,29.74
2023-07-22T15:17:10.742Z,29.72
2023-07-22T15:19:37.110Z,29.72
2023-07-22T15:22:03.429Z,29.68
2023-07-22T15:24:29.821Z,29.68
2023-07-22T15:26:56.144Z,29.70
2023-07-22T15:29:23.891Z,29.74
2023-07-22T15:31:50.460Z,29.76
2023-07-22T15:34:16.774Z,29.78
2023-07-22T15:36:43.214Z,29.80
2023-07-22T15:39:09.612Z,29.82
2023-07-22T15:41:35.924Z,29.86
2023-07-22T15:44:02.327Z,29.88
2023-07-22T15:46:28.889Z,29.88
2023-07-22T15:48:55.174Z,29.84
2023-07-22T15:51:21.451Z,29.85
2023-07-22T15:53:47.788Z,29.86
2023-07-22T15:56:14.110Z,29.91
2023-07-22T15:58:40.444Z,29.97
2023-07-22T16:01:06.756Z,30.02
2023-07-22T16:03:33.530Z,30.07
2023-07-22T16:06:00.157Z,30.13
2023-07-22T16:08:26.468Z,30.12
2023-07-22T16:10:53.061Z,30.15
2023-07-22T16:13:19.531Z,30.17
2023-07-22T16:15:45.868Z,30.18
2023-07-22T16:18:12.147Z,30.21
2023-07-22T16:20:38.462Z,30.22
2023-07-22T16:23:04.732Z,30.25
2023-07-22T16:25:31.184Z,30.34
2023-07-22T16:27:57.679Z,30.38
2023-07-22T16:30:24.156Z,30.46
2023-07-22T16:32:50.724Z,30.53
2023-07-22T16:35:17.093Z,30.57
2023-07-22T16:37:43.538Z,30.65
2023-07-22T16:40:09.838Z,30.73
2023-07-22T16:42:36.137Z,30.75
2023-07-22T16:45:02.474Z,30.76
2023-07-22T16:47:29.042Z,30.73
2023-07-22T16:49:55.471Z,30.70
2023-07-22T16:52:21.901Z,30.71
2023-07-22T16:54:48.374Z,30.71
2023-07-22T16:57:14.925Z,30.70
2023-07-22T16:59:41.353Z,30.69
2023-07-22T17:02:07.841Z,30.70
2023-07-22T17:04:34.317Z,30.71
2023-07-22T17:07:02.744Z,30.72
2023-07-22T17:09:29.434Z,30.70
2023-07-22T17:11:55.767Z,30.73
2023-07-22T17:14:22.100Z,30.75
2023-07-22T17:16:48.619Z,30.76
2023-07-22T17:19:17.300Z,30.74
2023-07-22T17:21:45.517Z,30.77
2023-07-22T17:24:11.872Z,30.77
2023-07-22T17:26:38.266Z,30.79
2023-07-22T17:29:04.664Z,30.79
2023-07-22T17:31:31.307Z,30.81
2023-07-22T17:33:57.648Z,30.83
2023-07-22T17:36:24.169Z,30.84
2023-07-22T17:38:50.613Z,30.83
2023-07-22T17:41:16.910Z,30.85
2023-07-22T17:43:43.305Z,30.85
2023-07-22T17:46:09.732Z,30.83
2023-07-22T17:48:36.009Z,30.77
2023-07-22T17:51:02.489Z,30.70
2023-07-22T17:53:28.766Z,30.70
2023-07-22T17:55:55.141Z,30.67
2023-07-22T17:58:21.416Z,30.63
2023-07-22T18:00:47.919Z,30.59
2023-07-22T18:03:14.538Z,30.54
2023-07-22T18:05:41.095Z,30.55
2023-07-22T18:08:07.394Z,30.55
2023-07-22T18:10:33.700Z,30.56
2023-07-22T18:13:00.220Z,30.52
2023-07-22T18:15:26.558Z,30.45
2023-07-22T18:17:52.885Z,30.46
2023-07-22T18:20:19.441Z,30.45
2023-07-22T18:22:45.783Z,30.42
2023-07-22T18:25:12.112Z,30.38
2023-07-22T18:27:38.605Z,30.30
2023-07-22T18:30:05.080Z,30.23
2023-07-22T18:32:31.596Z,30.18
2023-07-22T18:34:58.049Z,30.11
2023-07-22T18:37:24.516Z,29.98
2023-07-22T18:39:50.976Z,29.84
2023-07-22T18:42:17.289Z,29.82
2023-07-22T18:44:43.688Z,29.70
2023-07-22T18:47:10.116Z,29.29
2023-07-22T18:49:36.380Z,28.97
2023-07-22T18:52:02.884Z,28.77
2023-07-22T18:54:29.338Z,28.68
2023-07-22T18:56:55.660Z,28.65
2023-07-22T18:59:21.950Z,28.62
2023-07-22T19:01:48.238Z,28.54
2023-07-22T19:04:14.730Z,28.43
2023-07-22T19:06:41.215Z,28.35
2023-07-22T19:09:07.547Z,28.33
2023-07-22T19:11:33.827Z,28.27
2023-07-22T19:14:00.142Z,28.24
2023-07-22T19:16:26.470Z,28.17
2023-07-22T19:18:52.825Z,28.11
2023-07-22T19:21:19.130Z,28.04
2023-07-22T19:23:45.463Z,28.00
2023-07-22T19:26:11.829Z,27.99
2023-07-22T19:28:38.155Z,27.90
2023-07-22T19:31:04.704Z,27.82
2023-07-22T19:33:31.015Z,27.78
2023-07-22T19:35:57.329Z,27.70
2023-07-22T19:38:23.661Z,27.67
2023-07-22T19:40:50.131Z,27.65
2023-07-22T19:43:16.423Z,27.60
2023-07-22T19:45:42.705Z,27.56
2023-07-22T19:48:09.165Z,27.51
2023-07-22T19:50:35.771Z,27.45
2023-07-22T19:53:02.261Z,27.39
2023-07-22T19:55:28.782Z,27.39
2023-07-22T19:57:55.212Z,27.33
2023-07-22T20:00:21.648Z,27.30
2023-07-22T20:02:48.006Z,27.25
2023-07-22T20:05:14.406Z,27.16
2023-07-22T20:07:40.846Z,27.11
2023-07-22T20:10:07.154Z,27.06
2023-07-22T20:12:33.563Z,27.01
2023-07-22T20:15:00.052Z,26.90
2023-07-22T20:17:26.508Z,26.87
2023-07-22T20:19:52.954Z,26.82
2023-07-22T20:22:19.464Z,26.77
2023-07-22T20:24:45.857Z,26.79
2023-07-22T20:27:12.140Z,26.79
2023-07-22T20:29:38.422Z,26.80
2023-07-22T20:32:09.702Z,26.72
2023-07-22T20:34:45.565Z,26.64
2023-07-22T20:37:11.883Z,26.59
2023-07-22T20:39:38.162Z,26.52
2023-07-22T20:42:04.541Z,26.43
2023-07-22T20:44:30.966Z,26.32
2023-07-22T20:46:57.232Z,26.20
2023-07-22T20:49:23.707Z,26.18
2023-07-22T20:51:50.150Z,26.11
2023-07-22T20:54:16.452Z,26.09
2023-07-22T20:56:42.868Z,26.06
2023-07-22T20:59:09.170Z,25.98
2023-07-22T21:01:35.606Z,25.95
2023-07-22T21:04:02.066Z,25.91
2023-07-22T21:06:28.389Z,25.87
2023-07-22T21:08:54.779Z,25.78
2023-07-22T21:11:21.085Z,25.73
2023-07-22T21:13:47.385Z,25.71
2023-07-22T21:16:13.974Z,25.65
2023-07-22T21:18:40.378Z,25.56
2023-07-22T21:21:06.642Z,25.47
2023-07-22T21:23:33.145Z,25.41
2023-07-22T21:25:59.606Z,25.35
2023-07-22T21:28:26.064Z,25.31
2023-07-22T21:30:52.586Z,25.25
2023-07-22T21:33:21.715Z,25.19
2023-07-22T21:35:48.247Z,25.19
2023-07-22T21:38:14.528Z,25.16
2023-07-22T21:40:40.942Z,25.14
2023-07-22T21:43:07.271Z,25.15
2023-07-22T21:45:33.564Z,25.07
2023-07-22T21:48:00.095Z,25.04
2023-07-22T21:50:26.464Z,24.93
2023-07-22T21:52:53.733Z,24.92
2023-07-22T21:55:20.813Z,24.93
2023-07-22T21:57:47.086Z,24.99
2023-07-22T22:00:13.494Z,24.95
2023-07-22T22:02:40.310Z,24.95
2023-07-22T22:05:06.680Z,24.82
2023-07-22T22:07:33.058Z,24.92
2023-07-22T22:09:59.569Z,24.82
2023-07-22T22:12:26.008Z,24.81
2023-07-22T22:14:52.279Z,24.71
2023-07-22T22:17:18.598Z,24.85
2023-07-22T22:19:44.913Z,24.69
2023-07-22T22:22:11.329Z,24.87
2023-07-22T22:24:37.689Z,24.74
2023-07-22T22:27:04.115Z,24.67
2023-07-22T22:29:30.600Z,24.72
2023-07-22T22:31:56.873Z,24.74
2023-07-22T22:34:23.323Z,24.69
2023-07-22T22:36:49.818Z,24.62
2023-07-22T22:39:16.291Z,24.69
2023-07-22T22:41:42.757Z,24.98
2023-07-22T22:44:09.081Z,24.92
2023-07-22T22:46:35.467Z,24.90
2023-07-22T22:49:01.919Z,24.69
2023-07-22T22:51:28.553Z,25.01
2023-07-22T22:53:55.124Z,24.58
2023-07-22T22:56:21.598Z,24.63
2023-07-22T22:58:47.934Z,24.52
2023-07-22T23:01:14.291Z,24.55
2023-07-22T23:03:40.866Z,24.33
2023-07-22T23:06:07.207Z,24.23
2023-07-22T23:08:33.519Z,24.17
2023-07-22T23:10:59.963Z,24.25
2023-07-22T23:13:26.473Z,24.08
2023-07-22T23:15:52.881Z,24.14
2023-07-22T23:18:19.445Z,24.24
2023-07-22T23:20:45.809Z,24.11
2023-07-22T23:23:12.112Z,24.14
2023-07-22T23:25:38.420Z,23.93
2023-07-22T23:28:04.694Z,24.18
2023-07-22T23:30:31.227Z,24.50
2023-07-22T23:32:57.584Z,24.26
2023-07-22T23:35:23.945Z,23.94
2023-07-22T23:37:50.306Z,23.94
2023-07-22T23:40:16.652Z,23.99
2023-07-22T23:42:43.107Z,24.09
2023-07-22T23:45:09.538Z,23.87
2023-07-22T23:47:36.122Z,23.77
2023-07-22T23:50:02.580Z,23.73
2023-07-22T23:52:28.850Z,23.77
2023-07-22T23:54:55.247Z,24.32
2023-07-22T23:57:21.550Z,23.86
2023-07-22T23:59:47.869Z,24.27
